sensor_id;sensor_type;location;lat;lon;timestamp;pressure;altitude;pressure_sealevel;temperature;humidity
20019;BME280;10170;42.502;26.526;2023-05-22T00:01:44;99350.38;;;15.78;100.00
20019;BME280;10170;42.502;26.526;2023-05-22T00:04:12;99356.63;;;15.84;100.00
20019;BME280;10170;42.502;26.526;2023-05-22T00:06:42;99358.78;;;15.87;100.00
20019;BME280;10170;42.502;26.526;2023-05-22T00:09:09;99359.59;;;15.88;100.00
20019;BME280;10170;42.502;26.526;2023-05-22T00:11:35;99360.66;;;15.87;100.00
20019;BME280;10170;42.502;26.526;2023-05-22T00:14:02;99357.25;;;15.91;100.00
20019;BME280;10170;42.502;26.526;2023-05-22T00:16:29;99357.38;;;16.01;100.00
20019;BME280;10170;42.502;26.526;2023-05-22T00:18:56;99357.44;;;16.06;100.00
20019;BME280;10170;42.502;26.526;2023-05-22T00:21:23;99352.41;;;16.10;100.00
20019;BME280;10170;42.502;26.526;2023-05-22T00:23:50;99354.34;;;16.14;100.00
20019;BME280;10170;42.502;26.526;2023-05-22T00:26:17;99354.34;;;16.14;100.00
20019;BME280;10170;42.502;26.526;2023-05-22T00:28:43;99347.69;;;16.17;100.00
20019;BME280;10170;42.502;26.526;2023-05-22T00:31:10;99351.66;;;16.14;100.00
20019;BME280;10170;42.502;26.526;2023-05-22T00:33:37;99361.88;;;16.17;100.00
20019;BME280;10170;42.502;26.526;2023-05-22T00:36:05;99348.34;;;16.07;100.00
20019;BME280;10170;42.502;26.526;2023-05-22T00:38:34;99351.91;;;16.13;100.00
20019;BME280;10170;42.502;26.526;2023-05-22T00:41:03;99352.94;;;16.12;100.00
20019;BME280;10170;42.502;26.526;2023-05-22T00:43:30;99365.13;;;16.19;100.00
20019;BME280;10170;42.502;26.526;2023-05-22T00:45:57;99349.78;;;16.15;100.00
20019;BME280;10170;42.502;26.526;2023-05-22T00:48:24;99366.56;;;16.27;100.00
20019;BME280;10170;42.502;26.526;2023-05-22T00:50:53;99357.84;;;16.36;100.00
20019;BME280;10170;42.502;26.526;2023-05-22T00:53:20;99362.50;;;16.24;100.00
20019;BME280;10170;42.502;26.526;2023-05-22T00:55:48;99362.38;;;16.14;100.00
20019;BME280;10170;42.502;26.526;2023-05-22T00:58:18;99351.84;;;16.08;100.00
20019;BME280;10170;42.502;26.526;2023-05-22T01:00:47;99345.34;;;16.04;100.00
20019;BME280;10170;42.502;26.526;2023-05-22T01:03:14;99349.44;;;15.90;100.00
20019;BME280;10170;42.502;26.526;2023-05-22T01:05:42;99343.06;;;15.96;100.00
20019;BME280;10170;42.502;26.526;2023-05-22T01:08:09;99334.66;;;15.87;100.00
20019;BME280;10170;42.502;26.526;2023-05-22T01:10:37;99341.44;;;16.11;100.00
20019;BME280;10170;42.502;26.526;2023-05-22T01:13:34;99335.19;;;16.27;100.00
20019;BME280;10170;42.502;26.526;2023-05-22T01:16:23;99342.38;;;16.22;100.00
20019;BME280;10170;42.502;26.526;2023-05-22T01:32:45;99324.50;;;16.32;100.00
20019;BME280;10170;42.502;26.526;2023-05-22T01:35:16;99297.38;;;16.29;100.00
20019;BME280;10170;42.502;26.526;2023-05-22T01:37:44;99327.94;;;16.49;100.00
20019;BME280;10170;42.502;26.526;2023-05-22T01:40:12;99332.09;;;16.40;100.00
20019;BME280;10170;42.502;26.526;2023-05-22T01:42:39;99337.41;;;16.35;100.00
20019;BME280;10170;42.502;26.526;2023-05-22T01:45:10;99334.75;;;16.35;100.00
20019;BME280;10170;42.502;26.526;2023-05-22T01:47:37;99338.19;;;16.52;100.00
20019;BME280;10170;42.502;26.526;2023-05-22T01:50:05;99339.06;;;16.58;100.00
20019;BME280;10170;42.502;26.526;2023-05-22T01:52:42;99337.78;;;16.65;100.00
20019;BME280;10170;42.502;26.526;2023-05-22T01:55:12;99340.63;;;16.54;100.00
20019;BME280;10170;42.502;26.526;2023-05-22T01:57:51;99336.94;;;16.38;100.00
20019;BME280;10170;42.502;26.526;2023-05-22T02:00:24;99328.56;;;16.35;100.00
20019;BME280;10170;42.502;26.526;2023-05-22T02:03:05;99326.34;;;16.48;100.00
20019;BME280;10170;42.502;26.526;2023-05-22T02:05:37;99320.63;;;16.66;100.00
20019;BME280;10170;42.502;26.526;2023-05-22T02:08:05;99334.66;;;16.73;100.00
20019;BME280;10170;42.502;26.526;2023-05-22T02:10:34;99329.63;;;16.55;100.00
20019;BME280;10170;42.502;26.526;2023-05-22T02:13:01;99338.19;;;16.31;100.00
20019;BME280;10170;42.502;26.526;2023-05-22T02:15:29;99332.50;;;16.27;100.00
20019;BME280;10170;42.502;26.526;2023-05-22T02:17:58;99330.13;;;16.09;100.00
20019;BME280;10170;42.502;26.526;2023-05-22T02:20:25;99322.44;;;15.96;100.00
20019;BME280;10170;42.502;26.526;2023-05-22T02:22:52;99329.19;;;15.99;100.00
20019;BME280;10170;42.502;26.526;2023-05-22T02:25:19;99333.94;;;15.92;100.00
20019;BME280;10170;42.502;26.526;2023-05-22T02:27:46;99328.00;;;15.90;100.00
20019;BME280;10170;42.502;26.526;2023-05-22T02:30:14;99332.00;;;15.70;100.00
20019;BME280;10170;42.502;26.526;2023-05-22T02:32:41;99309.34;;;15.61;100.00
20019;BME280;10170;42.502;26.526;2023-05-22T02:35:08;99319.97;;;15.40;100.00
20019;BME280;10170;42.502;26.526;2023-05-22T02:37:35;99316.66;;;15.33;100.00
20019;BME280;10170;42.502;26.526;2023-05-22T02:40:03;99310.09;;;15.24;100.00
20019;BME280;10170;42.502;26.526;2023-05-22T02:42:33;99307.84;;;15.32;100.00
20019;BME280;10170;42.502;26.526;2023-05-22T02:45:01;99305.81;;;15.39;100.00
20019;BME280;10170;42.502;26.526;2023-05-22T02:47:28;99323.84;;;15.44;100.00
20019;BME280;10170;42.502;26.526;2023-05-22T02:49:54;99314.25;;;15.48;100.00
20019;BME280;10170;42.502;26.526;2023-05-22T02:52:23;99307.34;;;15.35;100.00
20019;BME280;10170;42.502;26.526;2023-05-22T02:54:50;99319.97;;;15.40;100.00
20019;BME280;10170;42.502;26.526;2023-05-22T02:57:17;99311.56;;;15.31;100.00
20019;BME280;10170;42.502;26.526;2023-05-22T02:59:44;99308.63;;;15.33;100.00
20019;BME280;10170;42.502;26.526;2023-05-22T03:02:11;99299.94;;;15.26;100.00
20019;BME280;10170;42.502;26.526;2023-05-22T03:04:37;99317.97;;;15.30;100.00
20019;BME280;10170;42.502;26.526;2023-05-22T03:07:04;99313.25;;;15.21;100.00
20019;BME280;10170;42.502;26.526;2023-05-22T03:09:32;99318.28;;;15.17;100.00
20019;BME280;10170;42.502;26.526;2023-05-22T03:11:59;99320.66;;;15.14;100.00
20019;BME280;10170;42.502;26.526;2023-05-22T03:14:26;99316.41;;;15.01;100.00
20019;BME280;10170;42.502;26.526;2023-05-22T03:16:55;99314.53;;;14.85;100.00
20019;BME280;10170;42.502;26.526;2023-05-22T03:19:22;99319.56;;;14.82;100.00
20019;BME280;10170;42.502;26.526;2023-05-22T03:21:49;99325.66;;;14.94;100.00
20019;BME280;10170;42.502;26.526;2023-05-22T03:24:16;99327.31;;;14.95;100.00
20019;BME280;10170;42.502;26.526;2023-05-22T03:26:42;99324.63;;;14.95;100.00
20019;BME280;10170;42.502;26.526;2023-05-22T03:29:09;99321.50;;;14.86;100.00
20019;BME280;10170;42.502;26.526;2023-05-22T03:31:36;99320.47;;;14.87;100.00
20019;BME280;10170;42.502;26.526;2023-05-22T03:34:03;99310.81;;;15.03;100.00
20019;BME280;10170;42.502;26.526;2023-05-22T03:36:31;99321.72;;;15.13;100.00
20019;BME280;10170;42.502;26.526;2023-05-22T03:39:02;99324.56;;;15.23;100.00
20019;BME280;10170;42.502;26.526;2023-05-22T03:41:29;99321.63;;;15.24;100.00
20019;BME280;10170;42.502;26.526;2023-05-22T03:43:56;99327.81;;;15.25;100.00
20019;BME280;10170;42.502;26.526;2023-05-22T03:46:23;99330.84;;;15.45;100.00
20019;BME280;10170;42.502;26.526;2023-05-22T03:48:50;99344.88;;;15.52;100.00
20019;BME280;10170;42.502;26.526;2023-05-22T03:51:17;99339.91;;;15.60;100.00
20019;BME280;10170;42.502;26.526;2023-05-22T03:53:45;99335.69;;;15.64;100.00
20019;BME280;10170;42.502;26.526;2023-05-22T03:56:12;99351.50;;;15.82;100.00
20019;BME280;10170;42.502;26.526;2023-05-22T03:58:39;99353.88;;;15.79;100.00
20019;BME280;10170;42.502;26.526;2023-05-22T04:01:06;99349.03;;;15.81;100.00
20019;BME280;10170;42.502;26.526;2023-05-22T04:03:36;99339.13;;;15.81;100.00
20019;BME280;10170;42.502;26.526;2023-05-22T04:06:03;99351.13;;;15.96;100.00
20019;BME280;10170;42.502;26.526;2023-05-22T04:08:31;99357.81;;;15.93;100.00
20019;BME280;10170;42.502;26.526;2023-05-22T04:10:58;99354.56;;;15.91;100.00
20019;BME280;10170;42.502;26.526;2023-05-22T04:13:25;99350.56;;;15.94;100.00
20019;BME280;10170;42.502;26.526;2023-05-22T04:15:52;99351.81;;;15.86;100.00
20019;BME280;10170;42.502;26.526;2023-05-22T04:18:19;99351.31;;;15.89;100.00
20019;BME280;10170;42.502;26.526;2023-05-22T04:20:46;99346.59;;;15.96;100.00
20019;BME280;10170;42.502;26.526;2023-05-22T04:23:13;99347.84;;;16.10;100.00
20019;BME280;10170;42.502;26.526;2023-05-22T04:25:40;99346.53;;;16.13;100.00
20019;BME280;10170;42.502;26.526;2023-05-22T04:28:06;99347.41;;;16.18;100.00
20019;BME280;10170;42.502;26.526;2023-05-22T04:30:34;99346.78;;;16.11;100.00
20019;BME280;10170;42.502;26.526;2023-05-22T04:33:06;99345.47;;;16.14;100.00
20019;BME280;10170;42.502;26.526;2023-05-22T04:35:33;99345.06;;;16.22;100.00
20019;BME280;10170;42.502;26.526;2023-05-22T04:38:00;99351.28;;;16.27;100.00
20019;BME280;10170;42.502;26.526;2023-05-22T04:40:31;99352.59;;;16.46;100.00
20019;BME280;10170;42.502;26.526;2023-05-22T04:42:59;99343.66;;;16.41;100.00
20019;BME280;10170;42.502;26.526;2023-05-22T04:45:26;99350.16;;;16.45;100.00
20019;BME280;10170;42.502;26.526;2023-05-22T04:47:54;99343.09;;;16.60;100.00
20019;BME280;10170;42.502;26.526;2023-05-22T04:50:25;99355.50;;;16.61;100.00
20019;BME280;10170;42.502;26.526;2023-05-22T04:52:51;99355.38;;;16.78;100.00
20019;BME280;10170;42.502;26.526;2023-05-22T04:55:18;99364.38;;;16.89;100.00
20019;BME280;10170;42.502;26.526;2023-05-22T04:57:45;99364.50;;;17.04;100.00
20019;BME280;10170;42.502;26.526;2023-05-22T05:00:13;99362.63;;;17.04;100.00
20019;BME280;10170;42.502;26.526;2023-05-22T05:02:42;99370.78;;;17.14;100.00
20019;BME280;10170;42.502;26.526;2023-05-22T05:05:09;99363.06;;;17.23;100.00
20019;BME280;10170;42.502;26.526;2023-05-22T05:07:37;99365.31;;;17.36;100.00
20019;BME280;10170;42.502;26.526;2023-05-22T05:10:05;99372.28;;;17.32;100.00
20019;BME280;10170;42.502;26.526;2023-05-22T05:12:32;99366.91;;;17.32;100.00
20019;BME280;10170;42.502;26.526;2023-05-22T05:14:59;99372.53;;;17.30;100.00
20019;BME280;10170;42.502;26.526;2023-05-22T05:17:26;99369.34;;;17.33;100.00
20019;BME280;10170;42.502;26.526;2023-05-22T05:19:53;99364.31;;;17.42;100.00
20019;BME280;10170;42.502;26.526;2023-05-22T05:22:20;99361.44;;;17.22;100.00
20019;BME280;10170;42.502;26.526;2023-05-22T05:24:46;99360.81;;;17.41;100.00
20019;BME280;10170;42.502;26.526;2023-05-22T05:27:13;99361.53;;;17.58;100.00
20019;BME280;10170;42.502;26.526;2023-05-22T05:29:40;99363.19;;;17.69;100.00
20019;BME280;10170;42.502;26.526;2023-05-22T05:32:07;99368.41;;;17.86;100.00
20019;BME280;10170;42.502;26.526;2023-05-22T05:34:37;99369.56;;;17.95;100.00
20019;BME280;10170;42.502;26.526;2023-05-22T05:37:04;99365.88;;;18.11;100.00
20019;BME280;10170;42.502;26.526;2023-05-22T05:39:30;99377.22;;;18.18;100.00
20019;BME280;10170;42.502;26.526;2023-05-22T05:41:57;99378.13;;;18.39;100.00
20019;BME280;10170;42.502;26.526;2023-05-22T05:44:25;99383.84;;;18.52;100.00
20019;BME280;10170;42.502;26.526;2023-05-22T05:46:51;99383.91;;;18.62;100.00
20019;BME280;10170;42.502;26.526;2023-05-22T05:49:19;99375.38;;;18.90;100.00
20019;BME280;10170;42.502;26.526;2023-05-22T05:51:46;99376.69;;;18.83;100.00
20019;BME280;10170;42.502;26.526;2023-05-22T05:54:12;99387.47;;;18.83;100.00
20019;BME280;10170;42.502;26.526;2023-05-22T05:56:40;99385.59;;;18.93;100.00
20019;BME280;10170;42.502;26.526;2023-05-22T05:59:07;99388.34;;;19.09;100.00
20019;BME280;10170;42.502;26.526;2023-05-22T06:01:36;99392.66;;;19.30;100.00
20019;BME280;10170;42.502;26.526;2023-05-22T06:04:04;99395.97;;;19.52;100.00
20019;BME280;10170;42.502;26.526;2023-05-22T06:06:31;99399.19;;;19.79;100.00
20019;BME280;10170;42.502;26.526;2023-05-22T06:09:02;99406.16;;;20.05;100.00
20019;BME280;10170;42.502;26.526;2023-05-22T06:11:32;99430.63;;;20.44;100.00
20019;BME280;10170;42.502;26.526;2023-05-22T06:14:03;99421.75;;;21.07;100.00
20019;BME280;10170;42.502;26.526;2023-05-22T06:16:30;99422.75;;;21.60;100.00
20019;BME280;10170;42.502;26.526;2023-05-22T06:18:58;99431.91;;;21.98;100.00
20019;BME280;10170;42.502;26.526;2023-05-22T06:21:25;99425.69;;;21.97;90.22
20019;BME280;10170;42.502;26.526;2023-05-22T06:23:51;99419.38;;;22.07;89.92
20019;BME280;10170;42.502;26.526;2023-05-22T06:26:18;99421.53;;;22.33;88.12
20019;BME280;10170;42.502;26.526;2023-05-22T06:28:45;99431.72;;;22.41;92.28
20019;BME280;10170;42.502;26.526;2023-05-22T06:31:12;99416.19;;;22.23;96.16
20019;BME280;10170;42.502;26.526;2023-05-22T06:33:39;99419.97;;;22.27;93.29
20019;BME280;10170;42.502;26.526;2023-05-22T06:36:09;99423.16;;;22.58;85.67
20019;BME280;10170;42.502;26.526;2023-05-22T06:38:37;99417.63;;;22.44;79.52
20019;BME280;10170;42.502;26.526;2023-05-22T06:41:04;99420.31;;;22.68;81.29
20019;BME280;10170;42.502;26.526;2023-05-22T06:43:31;99424.00;;;22.77;79.96
20019;BME280;10170;42.502;26.526;2023-05-22T06:45:58;99422.94;;;22.96;75.11
20019;BME280;10170;42.502;26.526;2023-05-22T06:48:25;99424.09;;;23.09;72.99
20019;BME280;10170;42.502;26.526;2023-05-22T06:50:52;99425.59;;;23.02;74.19
20019;BME280;10170;42.502;26.526;2023-05-22T06:53:19;99417.88;;;22.90;78.18
20019;BME280;10170;42.502;26.526;2023-05-22T06:55:45;99418.41;;;22.68;79.33
20019;BME280;10170;42.502;26.526;2023-05-22T06:58:12;99420.94;;;22.83;77.13
20019;BME280;10170;42.502;26.526;2023-05-22T07:00:39;99417.50;;;22.96;76.58
20019;BME280;10170;42.502;26.526;2023-05-22T07:03:06;99414.50;;;23.17;68.34
20019;BME280;10170;42.502;26.526;2023-05-22T07:05:33;99421.47;;;22.85;71.40
20019;BME280;10170;42.502;26.526;2023-05-22T07:08:00;99424.56;;;22.97;70.31
20019;BME280;10170;42.502;26.526;2023-05-22T07:10:27;99421.97;;;22.87;72.14
20019;BME280;10170;42.502;26.526;2023-05-22T07:12:54;99421.16;;;23.06;71.67
20019;BME280;10170;42.502;26.526;2023-05-22T07:15:21;99417.34;;;23.30;72.08
20019;BME280;10170;42.502;26.526;2023-05-22T07:17:48;99425.63;;;23.39;72.15
20019;BME280;10170;42.502;26.526;2023-05-22T07:20:15;99418.06;;;23.36;68.71
20019;BME280;10170;42.502;26.526;2023-05-22T07:22:43;99418.56;;;23.19;69.19
20019;BME280;10170;42.502;26.526;2023-05-22T07:25:10;99418.78;;;23.23;69.36
20019;BME280;10170;42.502;26.526;2023-05-22T07:27:37;99406.09;;;22.99;74.38
20019;BME280;10170;42.502;26.526;2023-05-22T07:30:04;99420.38;;;23.05;72.42
20019;BME280;10170;42.502;26.526;2023-05-22T07:32:31;99420.09;;;23.07;69.64
20019;BME280;10170;42.502;26.526;2023-05-22T07:34:58;99423.31;;;23.09;73.17
20019;BME280;10170;42.502;26.526;2023-05-22T07:37:25;99414.22;;;23.55;70.42
20019;BME280;10170;42.502;26.526;2023-05-22T07:39:52;99421.56;;;23.87;70.05
20019;BME280;10170;42.502;26.526;2023-05-22T07:42:19;99421.25;;;24.07;69.60
20019;BME280;10170;42.502;26.526;2023-05-22T07:44:47;99420.09;;;23.62;67.10
20019;BME280;10170;42.502;26.526;2023-05-22T07:47:13;99423.63;;;23.44;68.03
20019;BME280;10170;42.502;26.526;2023-05-22T07:49:40;99415.44;;;23.63;69.96
20019;BME280;10170;42.502;26.526;2023-05-22T07:52:07;99422.19;;;23.65;69.82
20019;BME280;10170;42.502;26.526;2023-05-22T07:54:34;99413.00;;;23.29;69.81
20019;BME280;10170;42.502;26.526;2023-05-22T07:57:01;99412.72;;;23.63;68.07
20019;BME280;10170;42.502;26.526;2023-05-22T07:59:29;99411.56;;;24.01;68.97
20019;BME280;10170;42.502;26.526;2023-05-22T08:01:56;99419.44;;;24.16;67.28
20019;BME280;10170;42.502;26.526;2023-05-22T08:04:24;99413.13;;;24.34;69.43
20019;BME280;10170;42.502;26.526;2023-05-22T08:06:51;99406.88;;;24.47;66.79
20019;BME280;10170;42.502;26.526;2023-05-22T08:09:18;99405.97;;;24.52;66.56
20019;BME280;10170;42.502;26.526;2023-05-22T08:11:47;99414.03;;;24.43;67.04
20019;BME280;10170;42.502;26.526;2023-05-22T08:14:13;99413.22;;;24.56;65.19
20019;BME280;10170;42.502;26.526;2023-05-22T08:16:40;99411.50;;;24.47;65.59
20019;BME280;10170;42.502;26.526;2023-05-22T08:19:07;99414.50;;;24.45;65.19
20019;BME280;10170;42.502;26.526;2023-05-22T08:21:34;99416.75;;;24.57;62.75
20019;BME280;10170;42.502;26.526;2023-05-22T08:24:03;99412.47;;;24.10;61.63
20019;BME280;10170;42.502;26.526;2023-05-22T08:26:30;99416.69;;;24.02;62.72
20019;BME280;10170;42.502;26.526;2023-05-22T08:28:59;99417.94;;;24.64;61.69
20019;BME280;10170;42.502;26.526;2023-05-22T08:31:26;99415.63;;;24.31;61.86
20019;BME280;10170;42.502;26.526;2023-05-22T08:33:56;99406.88;;;24.47;61.68
20019;BME280;10170;42.502;26.526;2023-05-22T08:36:31;99410.00;;;24.41;62.19
20019;BME280;10170;42.502;26.526;2023-05-22T08:38:59;99417.03;;;24.42;61.28
20019;BME280;10170;42.502;26.526;2023-05-22T08:41:27;99403.22;;;24.38;64.15
20019;BME280;10170;42.502;26.526;2023-05-22T08:43:54;99410.69;;;25.00;62.97
20019;BME280;10170;42.502;26.526;2023-05-22T08:46:22;99405.31;;;24.95;65.47
20019;BME280;10170;42.502;26.526;2023-05-22T08:48:55;99409.78;;;24.64;63.70
20019;BME280;10170;42.502;26.526;2023-05-22T08:51:27;99399.84;;;24.73;64.26
20019;BME280;10170;42.502;26.526;2023-05-22T08:53:57;99408.38;;;24.53;62.69
20019;BME280;10170;42.502;26.526;2023-05-22T08:56:25;99399.94;;;24.82;62.33
20019;BME280;10170;42.502;26.526;2023-05-22T08:58:56;99404.66;;;24.63;61.41
20019;BME280;10170;42.502;26.526;2023-05-22T09:01:24;99397.31;;;24.50;56.89
20019;BME280;10170;42.502;26.526;2023-05-22T09:03:56;99390.47;;;24.25;57.73
20019;BME280;10170;42.502;26.526;2023-05-22T09:06:25;99395.00;;;24.70;59.03
20019;BME280;10170;42.502;26.526;2023-05-22T09:08:51;99382.78;;;25.53;60.10
20019;BME280;10170;42.502;26.526;2023-05-22T09:11:18;99392.56;;;25.54;54.91
20019;BME280;10170;42.502;26.526;2023-05-22T09:13:45;99393.09;;;25.86;55.79
20019;BME280;10170;42.502;26.526;2023-05-22T09:16:12;99394.06;;;25.90;55.56
20019;BME280;10170;42.502;26.526;2023-05-22T09:18:40;99396.78;;;25.60;53.74
20019;BME280;10170;42.502;26.526;2023-05-22T09:21:11;99383.22;;;25.46;53.79
20019;BME280;10170;42.502;26.526;2023-05-22T09:24:06;99386.47;;;24.99;57.05
20019;BME280;10170;42.502;26.526;2023-05-22T09:26:34;99394.25;;;25.06;57.05
20019;BME280;10170;42.502;26.526;2023-05-22T09:29:01;99382.63;;;25.36;54.34
20019;BME280;10170;42.502;26.526;2023-05-22T09:31:28;99388.72;;;25.55;56.59
20019;BME280;10170;42.502;26.526;2023-05-22T09:33:55;99387.34;;;25.66;53.02
20019;BME280;10170;42.502;26.526;2023-05-22T09:36:32;99373.28;;;26.03;52.62
20019;BME280;10170;42.502;26.526;2023-05-22T09:38:59;99375.84;;;25.69;52.56
20019;BME280;10170;42.502;26.526;2023-05-22T09:41:27;99366.69;;;25.65;53.37
20019;BME280;10170;42.502;26.526;2023-05-22T09:43:56;99378.59;;;25.47;54.42
20019;BME280;10170;42.502;26.526;2023-05-22T09:46:25;99363.03;;;25.69;54.43
20019;BME280;10170;42.502;26.526;2023-05-22T09:48:52;99365.81;;;25.34;52.72
20019;BME280;10170;42.502;26.526;2023-05-22T09:51:21;99365.53;;;25.88;51.94
20019;BME280;10170;42.502;26.526;2023-05-22T09:53:57;99368.63;;;25.95;51.32
20019;BME280;10170;42.502;26.526;2023-05-22T09:56:28;99371.41;;;25.51;52.94
20019;BME280;10170;42.502;26.526;2023-05-22T09:59:07;99359.22;;;25.48;51.60
20019;BME280;10170;42.502;26.526;2023-05-22T10:01:35;99368.25;;;25.57;52.13
20019;BME280;10170;42.502;26.526;2023-05-22T10:04:05;99359.25;;;25.35;52.33
20019;BME280;10170;42.502;26.526;2023-05-22T10:06:37;99371.00;;;25.66;54.69
20019;BME280;10170;42.502;26.526;2023-05-22T10:09:05;99359.81;;;25.67;52.78
20019;BME280;10170;42.502;26.526;2023-05-22T10:11:35;99357.97;;;25.85;54.93
20019;BME280;10170;42.502;26.526;2023-05-22T10:14:02;99351.94;;;25.96;52.58
20019;BME280;10170;42.502;26.526;2023-05-22T10:16:30;99351.50;;;26.03;53.46
20019;BME280;10170;42.502;26.526;2023-05-22T10:18:59;99354.91;;;26.09;54.03
20019;BME280;10170;42.502;26.526;2023-05-22T10:21:28;99351.69;;;26.46;51.96
20019;BME280;10170;42.502;26.526;2023-05-22T10:23:56;99349.81;;;26.16;51.72
20019;BME280;10170;42.502;26.526;2023-05-22T10:26:23;99345.59;;;25.70;53.52
20019;BME280;10170;42.502;26.526;2023-05-22T10:29:06;99347.44;;;25.61;53.85
20019;BME280;10170;42.502;26.526;2023-05-22T10:32:12;99354.50;;;25.93;53.65
20019;BME280;10170;42.502;26.526;2023-05-22T10:34:48;99353.19;;;26.13;53.23
20019;BME280;10170;42.502;26.526;2023-05-22T10:37:55;99346.66;;;25.91;54.53
20019;BME280;10170;42.502;26.526;2023-05-22T10:40:31;99339.34;;;26.48;55.08
20019;BME280;10170;42.502;26.526;2023-05-22T10:42:59;99334.41;;;26.11;53.23
20019;BME280;10170;42.502;26.526;2023-05-22T10:45:30;99326.56;;;25.79;55.46
20019;BME280;10170;42.502;26.526;2023-05-22T10:48:04;99331.84;;;25.84;54.88
20019;BME280;10170;42.502;26.526;2023-05-22T10:50:33;99320.53;;;25.60;55.87
20019;BME280;10170;42.502;26.526;2023-05-22T10:53:20;99318.38;;;25.79;54.66
20019;BME280;10170;42.502;26.526;2023-05-22T10:55:52;99332.63;;;25.32;55.41
20019;BME280;10170;42.502;26.526;2023-05-22T10:58:27;99331.28;;;24.98;55.59
20019;BME280;10170;42.502;26.526;2023-05-22T11:01:14;99306.28;;;24.96;57.45
20019;BME280;10170;42.502;26.526;2023-05-22T11:03:54;99311.38;;;25.56;56.41
20019;BME280;10170;42.502;26.526;2023-05-22T11:09:30;99284.13;;;26.51;54.96
20019;BME280;10170;42.502;26.526;2023-05-22T11:12:27;99281.56;;;26.29;52.88
20019;BME280;10170;42.502;26.526;2023-05-22T11:14:58;99282.22;;;26.60;53.90
20019;BME280;10170;42.502;26.526;2023-05-22T11:17:27;99278.97;;;26.24;53.49
20019;BME280;10170;42.502;26.526;2023-05-22T11:20:04;99278.69;;;25.95;52.26
20019;BME280;10170;42.502;26.526;2023-05-22T11:22:39;99283.19;;;26.64;51.14
20019;BME280;10170;42.502;26.526;2023-05-22T11:25:16;99277.41;;;26.49;51.19
20019;BME280;10170;42.502;26.526;2023-05-22T11:27:45;99277.28;;;26.96;51.18
20019;BME280;10170;42.502;26.526;2023-05-22T11:30:13;99271.75;;;26.28;51.39
20019;BME280;10170;42.502;26.526;2023-05-22T11:32:43;99281.69;;;25.85;52.84
20019;BME280;10170;42.502;26.526;2023-05-22T11:35:18;99281.56;;;24.84;55.15
20019;BME280;10170;42.502;26.526;2023-05-22T11:37:46;99301.81;;;24.02;64.90
20019;BME280;10170;42.502;26.526;2023-05-22T11:40:18;99303.69;;;22.73;75.11
20019;BME280;10170;42.502;26.526;2023-05-22T11:42:46;99298.31;;;22.49;96.00
20019;BME280;10170;42.502;26.526;2023-05-22T11:45:13;99296.16;;;22.46;91.03
20019;BME280;10170;42.502;26.526;2023-05-22T11:47:41;99302.78;;;22.59;84.25
20019;BME280;10170;42.502;26.526;2023-05-22T11:50:10;99302.00;;;22.77;83.36
20019;BME280;10170;42.502;26.526;2023-05-22T11:52:40;99301.56;;;22.88;83.91
20019;BME280;10170;42.502;26.526;2023-05-22T11:55:08;99303.03;;;22.99;79.38
20019;BME280;10170;42.502;26.526;2023-05-22T11:57:36;99299.28;;;22.95;79.47
20019;BME280;10170;42.502;26.526;2023-05-22T12:00:05;99300.97;;;22.91;83.46
20019;BME280;10170;42.502;26.526;2023-05-22T12:02:34;99306.69;;;22.90;87.46
20019;BME280;10170;42.502;26.526;2023-05-22T12:05:01;99314.31;;;22.88;87.35
20019;BME280;10170;42.502;26.526;2023-05-22T12:07:28;99301.63;;;22.65;87.74
20019;BME280;10170;42.502;26.526;2023-05-22T12:09:56;99330.00;;;21.16;100.00
20019;BME280;10170;42.502;26.526;2023-05-22T12:12:24;99361.06;;;20.11;100.00
20019;BME280;10170;42.502;26.526;2023-05-22T12:14:51;99347.88;;;19.94;100.00
20019;BME280;10170;42.502;26.526;2023-05-22T12:17:18;99346.81;;;19.80;100.00
20019;BME280;10170;42.502;26.526;2023-05-22T12:19:46;99373.56;;;19.66;100.00
20019;BME280;10170;42.502;26.526;2023-05-22T12:22:13;99380.84;;;19.46;100.00
20019;BME280;10170;42.502;26.526;2023-05-22T12:24:41;99384.56;;;19.10;100.00
20019;BME280;10170;42.502;26.526;2023-05-22T12:27:12;99379.09;;;18.69;100.00
20019;BME280;10170;42.502;26.526;2023-05-22T12:29:40;99357.88;;;18.26;100.00
20019;BME280;10170;42.502;26.526;2023-05-22T12:32:09;99365.63;;;18.18;100.00
20019;BME280;10170;42.502;26.526;2023-05-22T12:34:46;99367.31;;;17.82;100.00
20019;BME280;10170;42.502;26.526;2023-05-22T12:37:22;99344.03;;;17.61;100.00
20019;BME280;10170;42.502;26.526;2023-05-22T12:39:57;99346.25;;;17.37;100.00
20019;BME280;10170;42.502;26.526;2023-05-22T12:42:25;99338.19;;;17.37;100.00
20019;BME280;10170;42.502;26.526;2023-05-22T12:44:52;99324.94;;;17.26;100.00
20019;BME280;10170;42.502;26.526;2023-05-22T12:47:21;99332.44;;;17.24;100.00
20019;BME280;10170;42.502;26.526;2023-05-22T12:49:49;99321.09;;;17.17;100.00
20019;BME280;10170;42.502;26.526;2023-05-22T12:52:16;99314.09;;;17.16;100.00
20019;BME280;10170;42.502;26.526;2023-05-22T12:54:43;99307.13;;;17.15;100.00
20019;BME280;10170;42.502;26.526;2023-05-22T12:57:10;99297.47;;;17.19;100.00
20019;BME280;10170;42.502;26.526;2023-05-22T12:59:36;99280.31;;;17.25;100.00
20019;BME280;10170;42.502;26.526;2023-05-22T13:02:03;99276.91;;;17.39;100.00
20019;BME280;10170;42.502;26.526;2023-05-22T13:04:30;99270.31;;;17.52;100.00
20019;BME280;10170;42.502;26.526;2023-05-22T13:06:57;99254.78;;;17.64;100.00
20019;BME280;10170;42.502;26.526;2023-05-22T13:09:24;99262.69;;;17.85;100.00
20019;BME280;10170;42.502;26.526;2023-05-22T13:11:51;99249.03;;;18.02;100.00